createdAt,value
2018-08-19T00:00:29.872Z,99.90
2018-08-19T00:05:30.016Z,99.90
2018-08-19T00:07:59.164Z,99.90
2018-08-19T00:11:08.482Z,99.90
2018-08-19T00:13:38.405Z,99.90
2018-08-19T00:16:09.386Z,99.90
2018-08-19T00:18:38.521Z,99.90
2018-08-19T00:24:03.209Z,99.90
2018-08-19T00:26:32.297Z,99.90
2018-08-19T00:29:01.410Z,99.90
2018-08-19T00:31:32.488Z,99.90
2018-08-19T00:34:01.649Z,99.90
2018-08-19T00:36:35.136Z,99.90
2018-08-19T00:39:07.347Z,99.90
2018-08-19T00:41:50.198Z,99.90
2018-08-19T00:44:19.338Z,99.90
2018-08-19T00:46:48.557Z,99.90
2018-08-19T00:49:17.877Z,99.90
2018-08-19T00:51:53.593Z,99.90
2018-08-19T00:54:23.038Z,99.90
2018-08-19T00:56:55.889Z,99.90
2018-08-19T00:59:26.509Z,99.90
2018-08-19T01:01:56.008Z,99.90
2018-08-19T01:04:25.985Z,99.90
2018-08-19T01:06:56.454Z,99.90
2018-08-19T01:09:28.108Z,99.90
2018-08-19T01:12:03.145Z,99.90
2018-08-19T01:14:32.502Z,99.90
2018-08-19T01:17:01.813Z,99.90
2018-08-19T01:19:32.169Z,99.90
2018-08-19T01:22:09.532Z,99.90
2018-08-19T01:24:39.014Z,99.90
2018-08-19T01:27:08.585Z,99.90
2018-08-19T01:29:43.255Z,99.90
2018-08-19T01:32:14.671Z,99.90
2018-08-19T01:34:46.657Z,99.90
2018-08-19T01:37:16.113Z,99.90
2018-08-19T01:39:45.433Z,99.90
2018-08-19T01:42:18.351Z,99.90
2018-08-19T01:44:47.697Z,99.90
2018-08-19T01:47:17.048Z,99.90
2018-08-19T01:49:46.153Z,99.90
2018-08-19T01:52:15.229Z,99.90
2018-08-19T01:54:44.349Z,99.90
2018-08-19T01:57:13.409Z,99.90
2018-08-19T01:59:42.567Z,99.90
2018-08-19T02:02:24.625Z,99.90
2018-08-19T02:04:55.789Z,99.90
2018-08-19T02:07:26.039Z,99.90
2018-08-19T02:10:03.241Z,99.90
2018-08-19T02:12:38.122Z,99.90
2018-08-19T02:15:09.102Z,99.90
2018-08-19T02:17:45.188Z,99.90
2018-08-19T02:20:14.442Z,99.90
2018-08-19T02:22:47.832Z,99.90
2018-08-19T02:25:17.231Z,99.90
2018-08-19T02:30:16.422Z,99.90
2018-08-19T02:32:45.513Z,99.90
2018-08-19T02:35:15.225Z,99.90
2018-08-19T02:37:44.533Z,99.90
2018-08-19T02:40:17.945Z,99.90
2018-08-19T02:42:47.281Z,99.90
2018-08-19T02:45:16.641Z,99.90
2018-08-19T02:47:46.118Z,99.90
2018-08-19T02:50:15.566Z,99.90
2018-08-19T02:52:44.953Z,99.90
2018-08-19T02:55:14.317Z,99.90
2018-08-19T03:00:17.989Z,99.90
2018-08-19T03:02:47.441Z,99.90
2018-08-19T03:05:16.786Z,99.90
2018-08-19T03:07:46.137Z,99.90
2018-08-19T03:10:16.315Z,99.90
2018-08-19T03:12:46.090Z,99.90
2018-08-19T03:15:16.211Z,99.90
2018-08-19T03:17:48.379Z,99.90
2018-08-19T03:20:23.496Z,99.90
2018-08-19T03:22:52.910Z,99.90
2018-08-19T03:25:22.390Z,99.90
2018-08-19T03:27:51.733Z,99.90
2018-08-19T03:32:55.227Z,99.90
2018-08-19T03:37:54.655Z,99.90
2018-08-19T03:40:35.613Z,99.90
2018-08-19T03:43:04.705Z,99.90
2018-08-19T03:45:33.757Z,99.90
2018-08-19T03:48:02.832Z,99.90
2018-08-19T03:50:36.941Z,99.90
2018-08-19T03:53:06.236Z,99.90
2018-08-19T03:55:38.605Z,99.90
2018-08-19T03:58:08.853Z,99.90
2018-08-19T04:00:53.061Z,99.90
2018-08-19T04:03:26.405Z,99.90
2018-08-19T04:05:59.153Z,99.90
2018-08-19T04:08:39.907Z,99.90
2018-08-19T04:11:09.381Z,99.90
2018-08-19T04:13:39.861Z,99.90
2018-08-19T04:16:11.513Z,99.90
2018-08-19T04:18:43.796Z,99.90
2018-08-19T04:21:33.648Z,99.90
2018-08-19T04:24:02.773Z,99.90
2018-08-19T04:26:32.454Z,99.90
2018-08-19T04:29:04.608Z,99.90
2018-08-19T04:31:42.005Z,99.90
2018-08-19T04:34:12.384Z,99.90
2018-08-19T04:36:41.925Z,99.90
2018-08-19T04:39:11.089Z,99.90
2018-08-19T04:41:50.132Z,99.90
2018-08-19T04:44:19.273Z,99.90
2018-08-19T04:46:48.333Z,99.90
2018-08-19T04:49:17.464Z,99.90
2018-08-19T04:51:47.629Z,99.90
2018-08-19T04:54:16.741Z,99.90
2018-08-19T04:59:15.318Z,99.90
2018-08-19T05:01:47.931Z,99.90
2018-08-19T05:04:17.052Z,99.90
2018-08-19T05:06:46.160Z,99.90
2018-08-19T05:09:15.321Z,99.90
2018-08-19T05:11:46.461Z,99.90
2018-08-19T05:14:15.557Z,99.90
2018-08-19T05:16:44.640Z,99.90
2018-08-19T05:19:13.802Z,99.90
2018-08-19T05:22:01.440Z,99.90
2018-08-19T05:24:30.588Z,99.90
2018-08-19T05:27:03.804Z,99.90
2018-08-19T05:29:32.925Z,99.90
2018-08-19T05:32:14.413Z,99.90
2018-08-19T05:34:43.881Z,99.90
2018-08-19T05:37:13.503Z,99.90
2018-08-19T05:39:47.010Z,99.90
2018-08-19T05:42:18.617Z,99.90
2018-08-19T05:44:48.058Z,99.90
2018-08-19T05:47:18.570Z,99.90
2018-08-19T05:49:48.587Z,99.90
2018-08-19T05:52:22.842Z,99.90
2018-08-19T05:55:07.166Z,99.90
2018-08-19T05:57:36.604Z,99.90
2018-08-19T06:00:11.799Z,99.90
2018-08-19T06:02:43.937Z,99.90
2018-08-19T06:05:14.130Z,99.90
2018-08-19T06:07:43.560Z,99.90
2018-08-19T06:10:12.886Z,99.90
2018-08-19T06:12:42.277Z,99.90
2018-08-19T06:15:11.731Z,99.90
2018-08-19T06:17:41.149Z,99.90
2018-08-19T06:20:10.521Z,99.90
2018-08-19T06:22:40.090Z,99.90
2018-08-19T06:25:10.405Z,99.90
2018-08-19T06:27:43.907Z,99.90
2018-08-19T06:30:14.165Z,99.90
2018-08-19T06:32:43.597Z,99.90
2018-08-19T06:35:13.328Z,99.90
2018-08-19T06:40:15.302Z,99.90
2018-08-19T06:45:14.481Z,99.90
2018-08-19T06:50:24.542Z,99.90
2018-08-19T06:52:54.740Z,99.90
2018-08-19T06:55:24.228Z,99.90
2018-08-19T06:57:55.827Z,99.90
2018-08-19T07:00:26.422Z,99.90
2018-08-19T07:02:57.165Z,99.90
2018-08-19T07:05:26.565Z,99.90
2018-08-19T07:07:55.976Z,99.90
2018-08-19T07:10:32.033Z,99.90
2018-08-19T07:13:06.609Z,99.90
2018-08-19T07:15:37.441Z,99.90
2018-08-19T07:18:08.790Z,99.90
2018-08-19T07:20:42.431Z,99.90
2018-08-19T07:23:12.257Z,99.90
2018-08-19T07:25:43.689Z,99.90
2018-08-19T07:28:14.832Z,99.90
2018-08-19T07:30:45.321Z,99.90
2018-08-19T07:33:15.043Z,99.90
2018-08-19T07:35:44.342Z,99.90
2018-08-19T07:38:13.693Z,99.90
2018-08-19T07:40:45.105Z,99.90
2018-08-19T07:43:14.508Z,99.90
2018-08-19T07:45:43.909Z,99.90
2018-08-19T07:48:14.274Z,99.90
2018-08-19T07:50:48.177Z,99.90
2018-08-19T07:53:17.561Z,99.90
2018-08-19T07:55:46.973Z,99.90
2018-08-19T07:58:33.061Z,99.90
2018-08-19T08:01:04.525Z,99.90
2018-08-19T08:03:46.073Z,99.90
2018-08-19T08:06:16.065Z,99.90
2018-08-19T08:08:45.181Z,99.90
2018-08-19T08:11:18.188Z,99.90
2018-08-19T08:13:47.299Z,99.90
2018-08-19T08:16:16.412Z,99.90
2018-08-19T08:18:45.597Z,99.90
2018-08-19T08:21:15.427Z,99.90
2018-08-19T08:23:44.890Z,99.90
2018-08-19T08:26:14.322Z,99.90
2018-08-19T08:28:52.657Z,99.90
2018-08-19T08:31:27.805Z,99.90
2018-08-19T08:33:57.170Z,99.90
2018-08-19T08:36:26.580Z,99.90
2018-08-19T08:38:55.994Z,99.90
2018-08-19T08:41:29.513Z,99.90
2018-08-19T08:43:58.931Z,99.90
2018-08-19T08:46:28.199Z,99.90
2018-08-19T08:48:57.693Z,99.90
2018-08-19T08:51:46.325Z,99.90
2018-08-19T08:54:15.889Z,99.90
2018-08-19T08:56:45.261Z,99.90
2018-08-19T08:59:14.708Z,99.90
2018-08-19T09:01:48.541Z,99.90
2018-08-19T09:06:46.837Z,97.70
2018-08-19T09:09:15.957Z,98.60
2018-08-19T09:11:45.111Z,94.40
2018-08-19T09:14:14.210Z,96.30
2018-08-19T09:16:43.377Z,94.00
2018-08-19T09:19:12.589Z,94.70
2018-08-19T09:21:45.073Z,92.50
2018-08-19T09:24:14.298Z,91.40
2018-08-19T09:26:43.670Z,87.70
2018-08-19T09:29:13.137Z,84.30
2018-08-19T09:31:58.454Z,84.00
2018-08-19T09:34:29.299Z,82.80
2018-08-19T09:37:00.569Z,80.30
2018-08-19T09:39:30.466Z,79.10
2018-08-19T09:42:12.165Z,77.80
2018-08-19T09:44:42.565Z,74.70
2018-08-19T09:49:41.066Z,71.40
2018-08-19T09:52:15.719Z,70.50
2018-08-19T09:54:45.239Z,70.70
2018-08-19T09:57:14.678Z,68.00
2018-08-19T09:59:45.266Z,65.50
2018-08-19T10:02:18.034Z,67.90
2018-08-19T10:04:47.481Z,66.40
2018-08-19T10:09:46.009Z,62.60
2018-08-19T10:12:15.885Z,61.60
2018-08-19T10:14:45.237Z,63.00
2018-08-19T10:17:14.650Z,60.20
2018-08-19T10:19:44.017Z,64.10
2018-08-19T10:22:13.585Z,61.00
2018-08-19T10:24:43.005Z,62.70
2018-08-19T10:27:12.413Z,59.50
2018-08-19T10:29:41.887Z,60.50
2018-08-19T10:32:14.993Z,60.20
2018-08-19T10:34:44.502Z,59.60
2018-08-19T10:37:13.981Z,57.90
2018-08-19T10:39:45.070Z,59.10
2018-08-19T10:47:27.123Z,58.70
2018-08-19T10:50:01.685Z,55.70
2018-08-19T10:52:33.306Z,55.00
2018-08-19T10:55:02.636Z,53.90
2018-08-19T10:57:32.186Z,55.00
2018-08-19T11:00:01.603Z,52.20
2018-08-19T11:02:31.137Z,53.20
2018-08-19T11:05:01.133Z,54.80
2018-08-19T11:07:30.553Z,54.70
2018-08-19T11:10:18.491Z,55.90
2018-08-19T11:12:52.530Z,54.00
2018-08-19T11:15:32.853Z,54.40
2018-08-19T11:18:43.595Z,54.90
2018-08-19T11:21:20.077Z,54.00
2018-08-19T11:23:49.539Z,54.70
2018-08-19T11:26:18.926Z,53.80
2018-08-19T11:28:57.065Z,53.20
2018-08-19T11:31:34.331Z,54.20
2018-08-19T11:34:05.244Z,53.20
2018-08-19T11:36:39.777Z,52.50
2018-08-19T11:39:13.146Z,52.00
2018-08-19T11:41:51.758Z,52.80
2018-08-19T11:44:21.202Z,52.30
2018-08-19T11:46:50.599Z,50.50
2018-08-19T11:49:20.878Z,49.50
2018-08-19T11:51:59.961Z,49.70
2018-08-19T11:54:30.069Z,50.00
2018-08-19T11:57:06.105Z,49.80
2018-08-19T11:59:37.557Z,49.90
2018-08-19T12:02:22.073Z,48.70
2018-08-19T12:04:51.413Z,48.00
2018-08-19T12:07:21.058Z,48.30
2018-08-19T12:10:06.966Z,49.80
2018-08-19T12:12:47.635Z,48.90
2018-08-19T12:15:17.725Z,48.70
2018-08-19T12:17:47.081Z,47.80
2018-08-19T12:20:22.973Z,48.90
2018-08-19T12:22:52.494Z,47.80
2018-08-19T12:25:21.913Z,47.10
2018-08-19T12:27:51.443Z,48.00
2018-08-19T12:30:20.866Z,48.10
2018-08-19T12:32:50.373Z,48.50
2018-08-19T12:35:19.833Z,46.70
2018-08-19T12:37:49.266Z,46.00
2018-08-19T12:40:24.477Z,45.60
2018-08-19T12:42:53.909Z,46.80
2018-08-19T12:45:24.569Z,46.50
2018-08-19T12:47:53.969Z,44.50
2018-08-19T12:50:34.101Z,45.50
2018-08-19T12:53:03.458Z,44.50
2018-08-19T12:55:32.814Z,43.50
2018-08-19T12:58:08.761Z,42.30
2018-08-19T13:00:38.298Z,40.00
2018-08-19T13:03:07.680Z,39.20
2018-08-19T13:05:58.337Z,39.60
2018-08-19T13:08:28.118Z,39.10
2018-08-19T13:13:53.569Z,38.70
2018-08-19T13:16:22.993Z,51.40
2018-08-19T13:18:52.677Z,44.80
2018-08-19T13:24:10.210Z,40.70
2018-08-19T13:26:39.594Z,42.30
2018-08-19T13:29:09.114Z,41.90
2018-08-19T13:31:49.662Z,41.60
2018-08-19T13:34:19.054Z,57.40
2018-08-19T13:36:48.668Z,45.00
2018-08-19T13:39:18.180Z,41.90
2018-08-19T13:41:47.627Z,41.60
2018-08-19T13:44:17.009Z,40.60
2018-08-19T13:46:46.517Z,41.50
2018-08-19T13:49:21.793Z,41.30
2018-08-19T13:51:53.168Z,42.60
2018-08-19T13:54:23.320Z,42.00
2018-08-19T13:56:52.425Z,39.90
2018-08-19T13:59:21.525Z,41.10
2018-08-19T14:01:52.710Z,40.80
2018-08-19T14:04:21.833Z,41.10
2018-08-19T14:06:50.982Z,39.20
2018-08-19T14:09:20.133Z,40.00
2018-08-19T14:12:04.269Z,39.80
2018-08-19T14:14:33.744Z,38.80
2018-08-19T14:17:03.135Z,38.90
2018-08-19T14:19:32.462Z,39.40
2018-08-19T14:22:06.851Z,39.30
2018-08-19T14:24:36.318Z,40.50
2018-08-19T14:27:05.873Z,39.40
2018-08-19T14:29:35.334Z,40.00
2018-08-19T14:32:04.702Z,40.40
2018-08-19T14:34:34.041Z,63.70
2018-08-19T14:37:03.452Z,39.20
2018-08-19T14:39:32.789Z,38.60
2018-08-19T14:42:03.210Z,39.70
2018-08-19T14:44:32.626Z,41.60
2018-08-19T14:47:02.021Z,67.30
2018-08-19T14:49:31.338Z,40.10
2018-08-19T14:52:08.070Z,40.80
2018-08-19T14:54:37.489Z,39.70
2018-08-19T14:57:06.913Z,41.00
2018-08-19T14:59:36.329Z,57.20
2018-08-19T15:02:20.379Z,57.00
2018-08-19T15:04:49.746Z,62.60
2018-08-19T15:07:19.103Z,39.20
2018-08-19T15:09:51.105Z,38.10
2018-08-19T15:12:22.490Z,37.70
2018-08-19T15:14:52.324Z,38.50
2018-08-19T15:17:21.745Z,36.10
2018-08-19T15:19:52.669Z,35.00
2018-08-19T15:22:23.725Z,35.20
2018-08-19T15:27:22.108Z,37.90
2018-08-19T15:29:52.487Z,37.70
2018-08-19T15:32:24.132Z,39.40
2018-08-19T15:37:21.886Z,39.10
2018-08-19T15:39:51.009Z,39.40
2018-08-19T15:42:28.324Z,40.00
2018-08-19T15:44:57.399Z,38.60
2018-08-19T15:47:26.522Z,37.30
2018-08-19T15:50:13.107Z,38.30
2018-08-19T15:57:40.373Z,55.40
2018-08-19T16:00:10.084Z,40.80
2018-08-19T16:02:39.323Z,40.40
2018-08-19T16:05:15.538Z,39.60
2018-08-19T16:07:45.977Z,39.00
2018-08-19T16:10:16.093Z,40.10
2018-08-19T16:12:49.102Z,40.20
2018-08-19T16:17:53.532Z,40.20
2018-08-19T16:20:23.081Z,40.90
2018-08-19T16:22:52.818Z,40.50
2018-08-19T16:25:22.701Z,40.90
2018-08-19T16:27:53.288Z,40.20
2018-08-19T16:30:22.665Z,40.80
2018-08-19T16:32:52.057Z,41.50
2018-08-19T16:35:21.425Z,44.40
2018-08-19T16:37:50.898Z,40.60
2018-08-19T16:40:20.305Z,41.00
2018-08-19T16:42:49.603Z,41.30
2018-08-19T16:45:18.994Z,41.90
2018-08-19T16:50:17.584Z,44.50
2018-08-19T16:55:16.049Z,45.50
2018-08-19T16:57:45.549Z,46.80
2018-08-19T17:00:22.941Z,47.40
2018-08-19T17:02:52.456Z,47.30
2018-08-19T17:05:32.998Z,47.50
2018-08-19T17:08:02.422Z,48.00
2018-08-19T17:10:41.129Z,48.40
2018-08-19T17:15:39.752Z,48.50
2018-08-19T17:18:08.916Z,48.70
2018-08-19T17:20:38.114Z,49.20
2018-08-19T17:23:07.209Z,49.50
2018-08-19T17:25:36.430Z,49.70
2018-08-19T17:28:11.177Z,49.80
2018-08-19T17:30:40.645Z,50.20
2018-08-19T17:33:10.763Z,50.50
2018-08-19T17:35:42.997Z,50.10
2018-08-19T17:38:12.404Z,51.40
2018-08-19T17:40:42.800Z,51.30
2018-08-19T17:43:12.214Z,51.30
2018-08-19T17:45:41.673Z,51.40
2018-08-19T17:48:11.022Z,52.60
2018-08-19T17:50:50.393Z,52.50
2018-08-19T17:53:19.792Z,53.40
2018-08-19T17:55:49.202Z,53.30
2018-08-19T17:58:18.606Z,54.50
2018-08-19T18:03:19.238Z,52.40
2018-08-19T18:05:48.609Z,53.00
2018-08-19T18:08:18.030Z,53.40
2018-08-19T18:10:51.586Z,54.10
2018-08-19T18:13:20.985Z,69.20
2018-08-19T18:15:50.349Z,55.60
2018-08-19T18:18:22.662Z,58.00
2018-08-19T18:20:58.581Z,57.30
2018-08-19T18:23:28.638Z,58.30
2018-08-19T18:25:58.037Z,58.10
2018-08-19T18:28:29.405Z,57.90
2018-08-19T18:31:09.167Z,57.90
2018-08-19T18:33:53.380Z,58.20
2018-08-19T18:36:24.670Z,58.50
2018-08-19T18:38:54.000Z,59.10
2018-08-19T18:41:29.605Z,59.60
2018-08-19T18:44:01.168Z,59.90
2018-08-19T18:46:31.069Z,60.90
2018-08-19T18:49:19.531Z,61.80
2018-08-19T18:51:54.294Z,63.40
2018-08-19T18:54:30.663Z,64.60
2018-08-19T18:57:06.453Z,66.40
2018-08-19T18:59:35.837Z,67.10
2018-08-19T19:02:11.006Z,67.30
2018-08-19T19:04:40.639Z,67.80
2018-08-19T19:07:12.613Z,68.30
2018-08-19T19:09:49.153Z,68.40
2018-08-19T19:12:22.356Z,67.90
2018-08-19T19:14:51.709Z,69.40
2018-08-19T19:17:21.133Z,71.00
2018-08-19T19:19:50.845Z,71.00
2018-08-19T19:25:04.661Z,73.20
2018-08-19T19:27:34.033Z,76.10
2018-08-19T19:30:04.154Z,74.90
2018-08-19T19:32:50.285Z,75.50
2018-08-19T19:35:20.125Z,75.60
2018-08-19T19:37:49.833Z,76.50
2018-08-19T19:40:21.864Z,78.50
2018-08-19T19:42:51.342Z,78.90
2018-08-19T19:45:20.778Z,79.50
2018-08-19T19:47:50.257Z,79.40
2018-08-19T19:50:19.581Z,80.20
2018-08-19T19:52:54.248Z,81.30
2018-08-19T19:55:24.217Z,82.30
2018-08-19T19:57:54.309Z,82.10
2018-08-19T20:00:27.449Z,82.80
2018-08-19T20:02:56.861Z,82.50
2018-08-19T20:05:26.329Z,83.10
2018-08-19T20:07:55.753Z,84.10
2018-08-19T20:10:39.540Z,84.10
2018-08-19T20:13:08.933Z,85.10
2018-08-19T20:18:07.589Z,87.70
2018-08-19T20:20:37.962Z,92.90
2018-08-19T20:23:12.922Z,90.70
2018-08-19T20:25:42.334Z,91.40
2018-08-19T20:28:11.830Z,91.90
2018-08-19T20:30:43.346Z,92.40
2018-08-19T20:33:19.471Z,92.70
2018-08-19T20:35:48.874Z,93.40
2018-08-19T20:38:18.214Z,93.70
2018-08-19T20:40:49.739Z,94.80
2018-08-19T20:43:21.993Z,95.60
2018-08-19T20:45:51.404Z,96.20
2018-08-19T20:48:21.632Z,96.80
2018-08-19T20:51:12.174Z,97.40
2018-08-19T20:53:41.297Z,97.80
2018-08-19T20:56:10.385Z,98.80
2018-08-19T20:58:39.521Z,99.30
2018-08-19T21:01:28.149Z,99.90
2018-08-19T21:03:57.752Z,99.90
2018-08-19T21:06:27.162Z,99.90
2018-08-19T21:08:56.553Z,99.90
2018-08-19T21:11:25.977Z,99.90
2018-08-19T21:13:55.357Z,99.90
2018-08-19T21:16:24.709Z,99.90
2018-08-19T21:18:54.046Z,99.90
2018-08-19T21:21:25.385Z,99.90
2018-08-19T21:23:54.764Z,99.90
2018-08-19T21:26:24.093Z,99.90
2018-08-19T21:29:00.278Z,99.90
2018-08-19T21:31:32.497Z,99.90
2018-08-19T21:34:01.959Z,99.90
2018-08-19T21:36:31.442Z,99.90
2018-08-19T21:39:00.874Z,99.90
2018-08-19T21:41:46.656Z,99.90
2018-08-19T21:44:16.653Z,99.90
2018-08-19T21:46:46.060Z,99.90
2018-08-19T21:49:15.483Z,99.90
2018-08-19T21:54:17.885Z,99.90
2018-08-19T21:56:47.229Z,99.90
2018-08-19T21:59:20.899Z,99.90
2018-08-19T22:04:28.605Z,99.90
2018-08-19T22:06:58.092Z,99.90
2018-08-19T22:12:14.405Z,99.90
2018-08-19T22:14:43.804Z,99.90
2018-08-19T22:17:13.294Z,99.90
2018-08-19T22:19:42.747Z,99.90
2018-08-19T22:22:16.201Z,99.90
2018-08-19T22:24:45.622Z,99.90
2018-08-19T22:27:17.190Z,99.90
2018-08-19T22:29:46.453Z,99.90
2018-08-19T22:32:17.918Z,99.90
2018-08-19T22:34:47.290Z,99.90
2018-08-19T22:39:46.518Z,99.90
2018-08-19T22:42:25.553Z,99.90
2018-08-19T22:44:55.021Z,99.90
2018-08-19T22:47:24.141Z,99.90
2018-08-19T22:49:53.251Z,99.90
2018-08-19T22:52:30.161Z,99.90
2018-08-19T22:54:59.768Z,99.90
2018-08-19T22:57:29.291Z,99.90
2018-08-19T22:59:58.734Z,99.90
2018-08-19T23:02:28.261Z,99.90
2018-08-19T23:04:57.610Z,99.90
2018-08-19T23:07:26.974Z,99.90
2018-08-19T23:09:56.360Z,99.90
2018-08-19T23:12:31.729Z,99.90
2018-08-19T23:15:18.113Z,99.90
2018-08-19T23:17:48.001Z,99.90
2018-08-19T23:20:17.520Z,99.90
2018-08-19T23:22:46.913Z,99.90
2018-08-19T23:25:16.301Z,99.90
2018-08-19T23:27:45.460Z,99.90
2018-08-19T23:30:14.761Z,99.90
2018-08-19T23:32:44.174Z,99.90
2018-08-19T23:35:14.517Z,99.90
2018-08-19T23:37:43.866Z,99.90
2018-08-19T23:40:13.253Z,99.90
2018-08-19T23:42:42.633Z,99.90
2018-08-19T23:45:12.066Z,99.90
2018-08-19T23:47:41.430Z,99.90
2018-08-19T23:50:10.867Z,99.90
2018-08-19T23:52:40.310Z,99.90
2018-08-19T23:55:09.775Z,99.90
2018-08-19T23:57:39.161Z,99.90
